createdAt,value
2022-11-17T00:02:21.298Z,11.15
2022-11-17T00:04:48.273Z,11.08
2022-11-17T00:07:15.258Z,11.12
2022-11-17T00:09:42.206Z,11.07
2022-11-17T00:12:32.687Z,11.36
2022-11-17T00:15:00.103Z,11.33
2022-11-17T00:17:27.086Z,11.54
2022-11-17T00:20:12.306Z,11.42
2022-11-17T00:22:39.157Z,11.46
2022-11-17T00:25:06.315Z,11.55
2022-11-17T00:27:33.216Z,11.63
2022-11-17T00:30:00.077Z,11.71
2022-11-17T00:32:45.375Z,11.82
2022-11-17T00:35:12.297Z,12.03
2022-11-17T00:38:03.636Z,11.98
2022-11-17T00:40:30.939Z,11.84
2022-11-17T00:42:57.870Z,12.05
2022-11-17T00:45:24.733Z,12.18
2022-11-17T00:47:51.610Z,11.98
2022-11-17T00:50:18.519Z,12.08
2022-11-17T00:52:45.368Z,12.00
2022-11-17T00:55:12.293Z,12.06
2022-11-17T00:57:39.144Z,12.06
2022-11-17T01:00:06.674Z,11.92
2022-11-17T01:02:33.539Z,11.95
2022-11-17T01:05:00.525Z,12.06
2022-11-17T01:07:27.408Z,12.31
2022-11-17T01:09:54.413Z,12.44
2022-11-17T01:12:21.273Z,12.17
2022-11-17T01:14:48.203Z,11.93
2022-11-17T01:17:15.159Z,12.11
2022-11-17T01:19:42.110Z,12.37
2022-11-17T01:22:08.958Z,12.37
2022-11-17T01:24:35.785Z,12.34
2022-11-17T01:27:02.677Z,12.35
2022-11-17T01:29:29.512Z,12.38
2022-11-17T01:31:56.385Z,12.48
2022-11-17T01:34:23.261Z,12.43
2022-11-17T01:37:08.503Z,12.54
2022-11-17T01:39:35.514Z,12.39
2022-11-17T01:42:13.772Z,12.40
2022-11-17T01:44:52.450Z,12.60
2022-11-17T01:47:37.784Z,12.76
2022-11-17T01:50:34.412Z,12.83
2022-11-17T01:53:05.754Z,12.93
2022-11-17T01:55:37.718Z,12.85
2022-11-17T01:58:10.748Z,13.01
2022-11-17T02:00:37.720Z,13.03
2022-11-17T02:03:07.376Z,13.02
2022-11-17T02:05:44.244Z,13.01
2022-11-17T02:08:12.331Z,13.11
2022-11-17T02:10:39.773Z,13.37
2022-11-17T02:13:07.677Z,13.23
2022-11-17T02:15:34.550Z,13.31
2022-11-17T02:18:02.433Z,13.33
2022-11-17T02:20:51.770Z,13.24
2022-11-17T02:23:33.817Z,13.09
2022-11-17T02:26:19.291Z,12.80
2022-11-17T02:29:04.054Z,13.01
2022-11-17T02:31:58.759Z,13.10
2022-11-17T02:34:45.142Z,12.83
2022-11-17T02:37:25.543Z,12.99
2022-11-17T02:40:18.324Z,13.03
2022-11-17T02:43:10.032Z,13.13
2022-11-17T02:45:42.474Z,13.10
2022-11-17T02:48:34.762Z,13.11
2022-11-17T02:51:04.029Z,13.06
2022-11-17T02:53:31.774Z,13.31
2022-11-17T02:56:01.964Z,13.54
2022-11-17T02:58:29.033Z,13.57
2022-11-17T03:01:37.737Z,13.58
2022-11-17T03:04:22.551Z,13.79
2022-11-17T03:07:34.256Z,13.48
2022-11-17T03:10:12.307Z,13.32
2022-11-17T03:13:05.889Z,12.80
2022-11-17T03:15:42.074Z,12.84
2022-11-17T03:18:27.882Z,12.71
2022-11-17T03:21:07.881Z,12.86
2022-11-17T03:23:34.981Z,12.90
2022-11-17T03:26:05.656Z,13.29
2022-11-17T03:28:33.236Z,13.05
2022-11-17T03:31:04.917Z,13.00
2022-11-17T03:33:33.043Z,13.19
2022-11-17T03:36:10.614Z,13.23
2022-11-17T03:38:42.724Z,13.13
2022-11-17T03:41:11.507Z,12.99
2022-11-17T03:43:40.503Z,13.18
2022-11-17T03:46:12.450Z,13.21
2022-11-17T03:48:50.854Z,13.01
2022-11-17T03:51:24.795Z,13.24
2022-11-17T03:53:54.136Z,13.35
2022-11-17T03:56:34.734Z,13.25
2022-11-17T03:59:10.512Z,13.41
2022-11-17T04:01:37.816Z,13.19
2022-11-17T04:04:05.195Z,13.06
2022-11-17T04:06:32.097Z,13.22
2022-11-17T04:08:58.952Z,13.41
2022-11-17T04:11:44.339Z,13.21
2022-11-17T04:14:29.932Z,12.94
2022-11-17T04:16:56.765Z,12.90
2022-11-17T04:19:23.606Z,12.58
2022-11-17T04:21:51.192Z,12.69
2022-11-17T04:24:18.552Z,12.29
2022-11-17T04:27:08.340Z,12.13
2022-11-17T04:29:35.166Z,12.13
2022-11-17T04:32:02.139Z,12.62
2022-11-17T04:34:29.008Z,12.12
2022-11-17T04:36:55.942Z,11.80
2022-11-17T04:39:22.786Z,11.94
2022-11-17T04:42:02.116Z,12.43
2022-11-17T04:44:31.606Z,12.57
2022-11-17T04:46:58.595Z,12.85
2022-11-17T04:49:26.356Z,12.94
2022-11-17T04:51:54.051Z,13.02
2022-11-17T04:54:26.362Z,12.77
2022-11-17T04:56:54.842Z,12.75
2022-11-17T04:59:21.909Z,13.13
2022-11-17T05:01:49.688Z,12.79
2022-11-17T05:04:38.431Z,12.82
2022-11-17T05:07:06.533Z,12.76
2022-11-17T05:09:33.488Z,12.72
2022-11-17T05:12:19.090Z,12.55
2022-11-17T05:14:47.819Z,12.52
2022-11-17T05:17:14.805Z,12.87
2022-11-17T05:19:44.272Z,12.98
2022-11-17T05:25:10.634Z,13.46
2022-11-17T05:27:37.851Z,13.61
2022-11-17T05:30:07.340Z,13.44
2022-11-17T05:32:34.698Z,12.37
2022-11-17T05:35:01.580Z,12.22
2022-11-17T05:37:28.721Z,11.99
2022-11-17T05:39:55.578Z,11.98
2022-11-17T05:42:22.462Z,12.12
2022-11-17T05:44:49.410Z,12.56
2022-11-17T05:47:16.752Z,12.46
2022-11-17T05:49:43.965Z,12.65
2022-11-17T05:52:10.830Z,13.14
2022-11-17T05:54:37.799Z,13.51
2022-11-17T05:57:11.801Z,13.75
2022-11-17T05:59:46.822Z,13.11
2022-11-17T06:02:26.930Z,13.08
2022-11-17T06:04:53.940Z,12.82
2022-11-17T06:07:21.191Z,12.98
2022-11-17T06:09:48.159Z,12.96
2022-11-17T06:12:15.608Z,12.92
2022-11-17T06:14:42.825Z,13.04
2022-11-17T06:17:33.915Z,13.18
2022-11-17T06:20:18.127Z,12.95
2022-11-17T06:22:48.365Z,13.52
2022-11-17T06:25:17.487Z,13.97
2022-11-17T06:27:45.591Z,14.17
2022-11-17T06:30:12.938Z,14.85
2022-11-17T06:32:43.715Z,15.09
2022-11-17T06:35:13.095Z,16.33
2022-11-17T06:37:40.052Z,18.43
2022-11-17T06:40:07.546Z,20.41
2022-11-17T06:42:52.713Z,22.94
2022-11-17T06:45:19.625Z,23.96
2022-11-17T06:47:46.622Z,24.37
2022-11-17T06:50:13.468Z,24.76
2022-11-17T06:52:40.391Z,24.94
2022-11-17T06:55:08.084Z,24.12
2022-11-17T06:57:35.104Z,24.93
2022-11-17T07:00:02.423Z,25.17
2022-11-17T07:02:31.536Z,24.64
2022-11-17T07:04:58.480Z,24.59
2022-11-17T07:07:25.416Z,24.81
2022-11-17T07:09:52.416Z,25.72
2022-11-17T07:12:19.370Z,26.91
2022-11-17T07:14:46.331Z,27.56
2022-11-17T07:17:13.250Z,29.63
2022-11-17T07:19:40.182Z,28.42
2022-11-17T07:22:07.063Z,26.34
2022-11-17T07:24:33.957Z,27.58
2022-11-17T07:27:00.914Z,27.02
2022-11-17T07:29:28.976Z,26.04
2022-11-17T07:31:55.900Z,27.51
2022-11-17T07:34:23.082Z,28.29
2022-11-17T07:36:49.977Z,29.33
2022-11-17T07:39:21.194Z,28.22
2022-11-17T07:41:48.744Z,29.44
2022-11-17T07:44:15.711Z,28.85
2022-11-17T07:46:42.600Z,29.15
2022-11-17T07:49:09.642Z,29.03
2022-11-17T07:51:36.794Z,28.69
2022-11-17T07:54:03.886Z,27.59
2022-11-17T07:56:30.905Z,29.04
2022-11-17T07:58:57.891Z,29.40
2022-11-17T08:01:27.654Z,28.77
2022-11-17T08:03:54.841Z,28.85
2022-11-17T08:06:22.863Z,28.85
2022-11-17T08:08:50.085Z,29.54
2022-11-17T08:11:18.235Z,28.96
2022-11-17T08:13:45.532Z,28.93
2022-11-17T08:16:13.553Z,29.64
2022-11-17T08:18:40.862Z,27.46
2022-11-17T08:21:10.234Z,26.19
2022-11-17T08:23:38.014Z,25.07
2022-11-17T08:26:06.032Z,23.86
2022-11-17T08:28:34.420Z,24.34
2022-11-17T08:31:06.419Z,26.94
2022-11-17T08:33:34.308Z,27.30
2022-11-17T08:36:02.290Z,27.73
2022-11-17T08:38:29.617Z,26.15
2022-11-17T08:40:57.548Z,24.91
2022-11-17T08:43:25.178Z,25.28
2022-11-17T08:45:52.121Z,26.03
2022-11-17T08:48:19.411Z,25.74
2022-11-17T08:50:46.412Z,25.21
2022-11-17T08:53:18.704Z,24.81
2022-11-17T08:55:46.084Z,23.77
2022-11-17T08:58:13.262Z,22.95
2022-11-17T09:00:40.920Z,23.51
2022-11-17T09:03:09.909Z,23.65
2022-11-17T09:05:42.125Z,22.62
2022-11-17T09:08:43.147Z,22.03
2022-11-17T09:10:57.783Z,22.00
2022-11-17T09:13:24.866Z,21.96
2022-11-17T09:15:51.764Z,21.33
2022-11-17T09:18:18.698Z,20.59
2022-11-17T09:20:46.442Z,20.10
2022-11-17T09:23:13.494Z,19.75
2022-11-17T09:25:40.369Z,19.68
2022-11-17T09:28:07.308Z,19.52
2022-11-17T09:30:34.230Z,19.44
2022-11-17T09:33:01.120Z,19.57
2022-11-17T09:35:28.012Z,18.90
2022-11-17T09:37:59.784Z,19.25
2022-11-17T09:40:29.096Z,19.13
2022-11-17T09:42:58.290Z,18.80
2022-11-17T09:45:37.478Z,18.70
2022-11-17T09:48:39.569Z,18.83
2022-11-17T09:51:04.504Z,18.47
2022-11-17T09:53:44.910Z,18.67
2022-11-17T09:56:13.741Z,18.32
2022-11-17T09:58:50.542Z,18.40
2022-11-17T10:01:19.877Z,18.22
2022-11-17T10:03:49.422Z,18.22
2022-11-17T10:06:23.034Z,18.05
2022-11-17T10:09:01.932Z,17.86
2022-11-17T10:11:36.408Z,17.65
2022-11-17T10:14:04.058Z,17.22
2022-11-17T10:16:31.546Z,17.12
2022-11-17T10:18:58.673Z,17.04
2022-11-17T10:21:30.495Z,16.71
2022-11-17T10:23:59.137Z,17.08
2022-11-17T10:26:28.152Z,16.91
2022-11-17T10:29:09.422Z,17.23
2022-11-17T10:31:45.087Z,17.01
2022-11-17T10:34:31.922Z,16.83
2022-11-17T10:37:21.811Z,16.82
2022-11-17T10:39:48.743Z,16.88
2022-11-17T10:42:21.649Z,16.70
2022-11-17T10:44:52.985Z,16.55
2022-11-17T10:47:32.911Z,16.20
2022-11-17T10:50:20.636Z,15.95
2022-11-17T10:52:49.213Z,15.73
2022-11-17T10:55:31.789Z,15.73
2022-11-17T10:58:16.515Z,15.79
2022-11-17T11:00:44.944Z,15.57
2022-11-17T11:03:33.720Z,15.74
2022-11-17T11:06:24.502Z,15.89
2022-11-17T11:08:57.123Z,15.55
2022-11-17T11:11:54.347Z,15.58
2022-11-17T11:14:39.315Z,15.92
2022-11-17T11:17:17.247Z,16.22
2022-11-17T11:19:51.621Z,16.10
2022-11-17T11:22:57.865Z,15.88
2022-11-17T11:25:38.014Z,15.46
2022-11-17T11:28:17.593Z,15.64
2022-11-17T11:31:00.793Z,15.78
2022-11-17T11:33:43.241Z,16.14
2022-11-17T11:36:28.805Z,16.05
2022-11-17T11:39:13.942Z,16.27
2022-11-17T11:42:04.739Z,16.24
2022-11-17T11:45:07.172Z,16.36
2022-11-17T11:47:34.026Z,16.37
2022-11-17T11:50:14.333Z,16.32
2022-11-17T11:52:48.430Z,16.03
2022-11-17T11:55:21.572Z,16.39
2022-11-17T11:58:15.055Z,16.51
2022-11-17T12:00:44.684Z,16.49
2022-11-17T12:03:49.856Z,16.91
2022-11-17T12:06:40.713Z,16.98
2022-11-17T12:09:25.453Z,17.22
2022-11-17T12:12:03.060Z,17.14
2022-11-17T12:14:35.445Z,17.01
2022-11-17T12:17:12.909Z,16.68
2022-11-17T12:19:54.125Z,16.50
2022-11-17T12:22:29.962Z,16.18
2022-11-17T12:25:00.368Z,16.45
2022-11-17T12:27:33.582Z,16.32
2022-11-17T12:30:02.021Z,16.10
2022-11-17T12:32:44.130Z,16.20
2022-11-17T12:35:29.192Z,16.23
2022-11-17T12:38:14.208Z,16.24
2022-11-17T12:40:49.031Z,16.26
2022-11-17T12:43:15.917Z,16.08
2022-11-17T12:46:04.385Z,15.87
2022-11-17T12:48:36.016Z,16.13
2022-11-17T12:51:21.242Z,16.18
2022-11-17T12:54:25.484Z,16.22
2022-11-17T12:57:05.283Z,16.07
2022-11-17T13:00:03.406Z,15.99
2022-11-17T13:03:11.874Z,15.69
2022-11-17T13:05:38.809Z,15.95
2022-11-17T13:08:14.720Z,15.78
2022-11-17T13:10:41.922Z,15.88
2022-11-17T13:13:20.658Z,15.90
2022-11-17T13:15:57.074Z,16.26
2022-11-17T13:18:30.870Z,16.76
2022-11-17T13:20:58.205Z,16.48
2022-11-17T13:23:27.893Z,16.20
2022-11-17T13:26:11.318Z,16.65
2022-11-17T13:28:38.237Z,16.19
2022-11-17T13:31:05.286Z,16.46
2022-11-17T13:33:38.449Z,16.52
2022-11-17T13:36:19.846Z,16.59
2022-11-17T13:38:49.334Z,16.65
2022-11-17T13:41:19.174Z,16.87
2022-11-17T13:43:47.385Z,16.73
2022-11-17T13:46:14.418Z,17.34
2022-11-17T13:48:45.710Z,17.66
2022-11-17T13:51:39.013Z,17.85
2022-11-17T13:54:12.182Z,17.70
2022-11-17T13:56:48.152Z,17.37
2022-11-17T13:59:37.996Z,16.89
2022-11-17T14:02:17.035Z,16.99
2022-11-17T14:05:06.257Z,17.02
2022-11-17T14:07:35.646Z,17.30
2022-11-17T14:10:20.844Z,17.54
2022-11-17T14:12:48.287Z,17.71
2022-11-17T14:15:21.271Z,17.39
2022-11-17T14:17:56.724Z,16.87
2022-11-17T14:20:23.683Z,16.49
2022-11-17T14:23:23.015Z,16.40
2022-11-17T14:25:51.310Z,16.55
2022-11-17T14:28:20.937Z,16.84
2022-11-17T14:30:49.654Z,16.64
2022-11-17T14:33:16.609Z,16.28
2022-11-17T14:35:45.397Z,15.88
2022-11-17T14:38:22.129Z,15.91
2022-11-17T14:40:51.723Z,15.82
2022-11-17T14:43:21.042Z,15.62
2022-11-17T14:45:49.459Z,15.46
2022-11-17T14:48:20.435Z,15.40
2022-11-17T14:50:48.631Z,15.55
2022-11-17T14:53:15.551Z,15.52
2022-11-17T14:55:42.443Z,15.16
2022-11-17T14:58:10.252Z,14.89
2022-11-17T15:00:37.665Z,14.50
2022-11-17T15:03:04.866Z,14.53
2022-11-17T15:05:31.825Z,14.40
2022-11-17T15:07:58.959Z,14.33
2022-11-17T15:10:25.905Z,14.28
2022-11-17T15:12:52.824Z,14.25
2022-11-17T15:15:19.884Z,14.10
2022-11-17T15:17:46.811Z,14.14
2022-11-17T15:20:13.759Z,13.93
2022-11-17T15:22:41.006Z,14.04
2022-11-17T15:25:08.633Z,14.01
2022-11-17T15:27:35.516Z,14.02
2022-11-17T15:30:02.527Z,14.03
2022-11-17T15:32:29.875Z,13.92
2022-11-17T15:34:56.746Z,13.81
2022-11-17T15:37:23.806Z,13.84
2022-11-17T15:39:50.752Z,13.64
2022-11-17T15:42:17.977Z,13.69
2022-11-17T15:44:44.869Z,13.56
2022-11-17T15:47:11.767Z,13.59
2022-11-17T15:49:38.664Z,13.65
2022-11-17T15:52:05.622Z,13.52
2022-11-17T15:54:33.065Z,13.69
2022-11-17T15:57:01.579Z,13.67
2022-11-17T15:59:28.485Z,13.69
2022-11-17T16:01:55.529Z,13.75
2022-11-17T16:04:22.495Z,13.71
2022-11-17T16:06:49.505Z,13.84
2022-11-17T16:09:17.310Z,14.16
2022-11-17T16:11:44.834Z,14.41
2022-11-17T16:14:11.931Z,14.54
2022-11-17T16:16:39.830Z,14.54
2022-11-17T16:19:07.259Z,14.48
2022-11-17T16:21:34.314Z,14.47
2022-11-17T16:24:02.343Z,14.19
2022-11-17T16:26:30.174Z,13.83
2022-11-17T16:29:01.504Z,13.43
2022-11-17T16:31:30.608Z,13.40
2022-11-17T16:34:00.796Z,13.39
2022-11-17T16:36:35.959Z,13.40
2022-11-17T16:39:06.012Z,13.30
2022-11-17T16:41:35.822Z,13.24
2022-11-17T16:44:06.542Z,13.36
2022-11-17T16:46:33.449Z,13.74
2022-11-17T16:49:06.691Z,13.35
2022-11-17T16:51:34.587Z,13.28
2022-11-17T16:54:03.956Z,13.31
2022-11-17T16:56:31.645Z,13.37
2022-11-17T16:58:59.045Z,13.15
2022-11-17T17:01:30.346Z,13.24
2022-11-17T17:04:06.500Z,13.05
2022-11-17T17:06:34.677Z,13.07
2022-11-17T17:09:04.643Z,12.94
2022-11-17T17:11:33.067Z,12.93
2022-11-17T17:14:03.122Z,12.89
2022-11-17T17:16:31.906Z,12.95
2022-11-17T17:19:00.802Z,12.93
2022-11-17T17:21:29.184Z,12.96
2022-11-17T17:23:57.034Z,12.85
2022-11-17T17:26:26.016Z,12.82
2022-11-17T17:28:55.929Z,12.78
2022-11-17T17:31:24.158Z,12.72
2022-11-17T17:33:51.900Z,12.54
2022-11-17T17:36:21.454Z,12.38
2022-11-17T17:38:54.922Z,12.34
2022-11-17T17:41:26.047Z,12.44
2022-11-17T17:44:01.266Z,12.63
2022-11-17T17:46:29.946Z,12.73
2022-11-17T17:48:57.685Z,12.70
2022-11-17T17:51:27.459Z,12.53
2022-11-17T17:53:56.026Z,12.57
2022-11-17T17:56:23.682Z,12.58
2022-11-17T17:58:51.984Z,12.41
2022-11-17T18:01:27.534Z,12.37
2022-11-17T18:04:05.161Z,12.19
2022-11-17T18:06:38.198Z,12.32
2022-11-17T18:09:07.357Z,12.50
2022-11-17T18:11:35.813Z,12.40
2022-11-17T18:14:03.667Z,12.45
2022-11-17T18:16:32.990Z,12.12
2022-11-17T18:19:02.464Z,12.08
2022-11-17T18:21:29.987Z,11.92
2022-11-17T18:23:58.954Z,11.85
2022-11-17T18:26:30.707Z,12.30
2022-11-17T18:29:03.333Z,12.11
2022-11-17T18:31:32.558Z,12.26
2022-11-17T18:34:05.253Z,12.26
2022-11-17T18:36:32.699Z,12.21
2022-11-17T18:38:59.648Z,12.20
2022-11-17T18:41:27.666Z,12.21
2022-11-17T18:43:55.367Z,11.97
2022-11-17T18:46:24.182Z,12.11
2022-11-17T18:48:52.080Z,12.20
2022-11-17T18:51:21.909Z,12.20
2022-11-17T18:53:50.206Z,12.19
2022-11-17T18:56:20.190Z,12.08
2022-11-17T18:58:47.202Z,12.10
2022-11-17T19:01:19.704Z,11.95
2022-11-17T19:03:48.997Z,11.78
2022-11-17T19:06:17.256Z,12.02
2022-11-17T19:08:44.483Z,11.57
2022-11-17T19:11:12.332Z,11.57
2022-11-17T19:13:40.917Z,11.80
2022-11-17T19:16:16.997Z,11.93
2022-11-17T19:18:45.743Z,11.65
2022-11-17T19:21:26.048Z,11.34
2022-11-17T19:23:54.965Z,11.53
2022-11-17T19:26:24.677Z,11.86
2022-11-17T19:28:56.044Z,11.75
2022-11-17T19:31:24.065Z,11.94
2022-11-17T19:33:51.404Z,12.13
2022-11-17T19:36:21.291Z,12.63
2022-11-17T19:38:50.055Z,12.91
2022-11-17T19:41:24.521Z,13.04
2022-11-17T19:43:55.799Z,13.02
2022-11-17T19:46:23.860Z,12.77
2022-11-17T19:48:51.633Z,12.85
2022-11-17T19:51:19.933Z,12.86
2022-11-17T19:53:51.806Z,13.02
2022-11-17T19:56:19.523Z,13.23
2022-11-17T19:58:47.426Z,13.28
2022-11-17T20:01:19.772Z,13.27
2022-11-17T20:03:48.391Z,13.23
2022-11-17T20:06:17.923Z,13.43
2022-11-17T20:08:45.355Z,13.41
2022-11-17T20:11:15.164Z,13.56
2022-11-17T20:13:42.419Z,13.20
2022-11-17T20:16:14.864Z,12.20
2022-11-17T20:18:42.998Z,11.49
2022-11-17T20:21:11.285Z,11.40
2022-11-17T20:23:39.194Z,11.00
2022-11-17T20:26:17.671Z,10.63
2022-11-17T20:28:45.003Z,10.37
2022-11-17T20:31:14.280Z,10.27
2022-11-17T20:33:42.407Z,10.06
2022-11-17T20:36:12.332Z,10.02
2022-11-17T20:38:39.809Z,9.80
2022-11-17T20:41:07.211Z,9.60
2022-11-17T20:43:35.393Z,9.80
2022-11-17T20:46:03.245Z,9.63
2022-11-17T20:48:31.621Z,9.68
2022-11-17T20:51:13.561Z,9.81
2022-11-17T20:53:41.225Z,9.75
2022-11-17T20:56:09.868Z,10.16
2022-11-17T20:58:37.155Z,10.41
2022-11-17T21:01:14.792Z,10.42
2022-11-17T21:03:42.449Z,10.48
2022-11-17T21:06:09.880Z,10.58
2022-11-17T21:08:38.974Z,10.32
2022-11-17T21:11:08.856Z,10.45
2022-11-17T21:13:37.282Z,10.38
2022-11-17T21:16:12.869Z,10.44
2022-11-17T21:18:46.225Z,10.61
2022-11-17T21:21:13.348Z,10.60
2022-11-17T21:23:41.662Z,10.87
2022-11-17T21:26:13.830Z,11.01
2022-11-17T21:28:41.569Z,11.05
2022-11-17T21:31:20.047Z,11.27
2022-11-17T21:33:47.362Z,11.38
2022-11-17T21:36:18.053Z,11.34
2022-11-17T21:38:45.630Z,11.54
2022-11-17T21:41:21.069Z,11.49
2022-11-17T21:43:50.640Z,11.59
2022-11-17T21:46:23.604Z,11.58
2022-11-17T21:48:52.113Z,11.61
2022-11-17T21:51:27.249Z,11.68
2022-11-17T21:53:56.133Z,11.69
2022-11-17T21:56:26.841Z,11.68
2022-11-17T21:58:58.330Z,11.69
2022-11-17T22:01:25.545Z,11.66
2022-11-17T22:03:52.576Z,11.59
2022-11-17T22:06:22.876Z,11.62
2022-11-17T22:08:50.730Z,11.44
2022-11-17T22:11:36.307Z,11.76
2022-11-17T22:14:16.799Z,11.97
2022-11-17T22:16:52.235Z,11.95
2022-11-17T22:19:21.199Z,12.12
2022-11-17T22:21:50.270Z,11.97
2022-11-17T22:24:17.899Z,11.96
2022-11-17T22:26:45.849Z,12.03
2022-11-17T22:29:16.095Z,12.18
2022-11-17T22:31:44.334Z,12.29
2022-11-17T22:34:12.682Z,12.71
2022-11-17T22:36:39.741Z,12.51
2022-11-17T22:39:06.646Z,12.73
2022-11-17T22:41:33.634Z,12.82
2022-11-17T22:44:00.747Z,12.75
2022-11-17T22:46:28.624Z,12.63
2022-11-17T22:48:56.206Z,12.63
2022-11-17T22:51:44.350Z,12.61
2022-11-17T22:54:11.324Z,12.72
2022-11-17T22:56:38.206Z,12.60
2022-11-17T22:59:05.125Z,12.68
2022-11-17T23:01:32.123Z,12.74
2022-11-17T23:03:59.200Z,12.70
2022-11-17T23:06:29.404Z,12.98
2022-11-17T23:08:58.346Z,13.17
2022-11-17T23:11:37.450Z,12.92
2022-11-17T23:14:08.162Z,12.91
2022-11-17T23:16:36.886Z,12.77
2022-11-17T23:19:05.081Z,12.99
2022-11-17T23:21:32.209Z,12.77
2022-11-17T23:23:59.156Z,12.77
2022-11-17T23:26:26.039Z,12.52
2022-11-17T23:28:52.890Z,12.36
2022-11-17T23:31:19.764Z,12.37
2022-11-17T23:33:48.148Z,12.23
2022-11-17T23:36:20.346Z,11.98
2022-11-17T23:38:48.162Z,11.74
2022-11-17T23:41:17.269Z,11.80
2022-11-17T23:43:44.139Z,11.47
2022-11-17T23:46:13.652Z,11.67
2022-11-17T23:48:41.843Z,11.62
2022-11-17T23:51:18.852Z,11.71
2022-11-17T23:53:52.225Z,11.59
2022-11-17T23:56:20.594Z,11.69
2022-11-17T23:58:48.064Z,11.77
